Time;durP1;ratioP1;P1;durP2;ratioP2;P2;SDS_P1;SDS_P2;PMS_P1;PMS_P2;Temp;Humidity;BMP_temperature;BMP_pressure;BME280_temperature;BME280_humidity;BME280_pressure;Samples;Min_cycle;Max_cycle;Signal;HPM_P1;HPM_P2
2022/09/13 00:00:24;;;;;;;13.85;8.75;;;;;;;;;;5017178;28;20052;-81
2022/09/13 00:02:50;;;;;;;10.85;8.00;;;;;;;;;;5000117;28;20051;-81
2022/09/13 00:05:19;;;;;;;9.55;7.35;;;;;;;;;;5019026;28;20799;-80
2022/09/13 00:07:45;;;;;;;12.40;7.72;;;;;;;;;;5021974;28;20083;-81
2022/09/13 00:10:12;;;;;;;14.93;7.80;;;;;;;;;;5019034;28;20053;-81
2022/09/13 00:12:38;;;;;;;14.20;8.43;;;;;;;;;;5018806;28;20418;-80
2022/09/13 00:15:05;;;;;;;13.45;8.20;;;;;;;;;;5018932;28;20077;-80
2022/09/13 00:17:31;;;;;;;11.10;7.93;;;;;;;;;;5018261;28;20046;-79
2022/09/13 00:19:57;;;;;;;12.27;8.50;;;;;;;;;;5017621;28;20052;-82
2022/09/13 00:22:25;;;;;;;11.55;8.30;;;;;;;;;;5019659;28;20406;-80
2022/09/13 00:24:51;;;;;;;12.25;7.93;;;;;;;;;;5018526;28;20065;-81
2022/09/13 00:27:17;;;;;;;12.88;8.60;;;;;;;;;;5018162;28;20057;-81
2022/09/13 00:29:44;;;;;;;12.52;7.80;;;;;;;;;;5018715;28;20203;-81
2022/09/13 00:32:11;;;;;;;12.82;7.70;;;;;;;;;;5001142;28;20057;-81
2022/09/13 00:34:37;;;;;;;13.32;7.55;;;;;;;;;;5019498;28;20042;-81
2022/09/13 00:37:04;;;;;;;9.15;6.85;;;;;;;;;;5003910;28;20125;-80
2022/09/13 00:39:30;;;;;;;10.95;7.28;;;;;;;;;;5020455;28;20060;-81
2022/09/13 00:41:56;;;;;;;13.25;7.20;;;;;;;;;;5003206;28;20061;-82
2022/09/13 00:45:02;;;;;;;13.68;7.10;;;;;;;;;;5021177;28;20050;-82
2022/09/13 00:47:39;;;;;;;12.43;6.90;;;;;;;;;;4939035;29;20059;-82
2022/09/13 00:50:06;;;;;;;15.55;8.35;;;;;;;;;;4940091;29;20048;-81
2022/09/13 00:52:32;;;;;;;16.60;8.05;;;;;;;;;;4985687;28;20060;-81
2022/09/13 00:55:01;;;;;;;14.32;8.15;;;;;;;;;;5031935;28;20049;-83
2022/09/13 00:57:28;;;;;;;16.60;8.88;;;;;;;;;;5029275;28;20046;-81
2022/09/13 00:59:59;;;;;;;19.30;9.40;;;;;;;;;;5025297;28;20056;-81
2022/09/13 01:02:27;;;;;;;18.17;9.75;;;;;;;;;;5023730;28;20279;-80
2022/09/13 01:04:54;;;;;;;17.80;9.32;;;;;;;;;;5005318;28;20089;-81
2022/09/13 01:07:21;;;;;;;14.77;8.70;;;;;;;;;;5001044;28;20065;-81
2022/09/13 01:09:49;;;;;;;13.82;8.57;;;;;;;;;;5000179;28;20056;-80
2022/09/13 01:12:22;;;;;;;15.68;9.27;;;;;;;;;;4997984;28;20056;-79
2022/09/13 01:14:48;;;;;;;14.75;8.77;;;;;;;;;;4997611;28;20057;-80
2022/09/13 01:17:15;;;;;;;13.68;8.57;;;;;;;;;;4996873;28;20068;-79
2022/09/13 01:19:41;;;;;;;13.60;8.48;;;;;;;;;;4995489;28;20049;-81
2022/09/13 01:22:40;;;;;;;13.32;8.20;;;;;;;;;;5001108;28;20500;-80
2022/09/13 01:25:15;;;;;;;13.52;8.52;;;;;;;;;;4959242;28;20050;-81
2022/09/13 01:28:08;;;;;;;16.42;9.43;;;;;;;;;;4997267;28;20053;-80
2022/09/13 01:30:36;;;;;;;13.60;9.38;;;;;;;;;;4997706;28;20051;-80
2022/09/13 01:33:24;;;;;;;15.98;8.60;;;;;;;;;;4996110;28;20042;-81
2022/09/13 01:35:54;;;;;;;16.23;9.40;;;;;;;;;;4999603;28;20068;-81
2022/09/13 01:38:32;;;;;;;14.95;8.80;;;;;;;;;;5000992;28;20533;-82
2022/09/13 01:41:11;;;;;;;13.70;8.88;;;;;;;;;;5000302;28;20066;-81
2022/09/13 01:43:37;;;;;;;14.18;8.63;;;;;;;;;;4996538;28;20633;-81
2022/09/13 01:46:06;;;;;;;15.50;8.98;;;;;;;;;;4997785;28;20129;-82
2022/09/13 01:48:47;;;;;;;12.30;8.55;;;;;;;;;;4999353;28;20608;-81
2022/09/13 01:51:22;;;;;;;13.13;8.60;;;;;;;;;;4984196;28;20496;-80
2022/09/13 01:53:59;;;;;;;12.70;8.30;;;;;;;;;;4997044;28;20054;-79
2022/09/13 01:56:28;;;;;;;13.63;8.48;;;;;;;;;;4979224;28;20054;-81
2022/09/13 01:59:05;;;;;;;16.65;9.57;;;;;;;;;;4997809;28;20077;-82
2022/09/13 02:01:41;;;;;;;12.85;9.50;;;;;;;;;;4999797;28;20061;-81
2022/09/13 02:04:12;;;;;;;14.88;9.32;;;;;;;;;;4998382;28;20056;-82
2022/09/13 02:06:41;;;;;;;12.95;9.10;;;;;;;;;;4999961;28;20056;-81
2022/09/13 02:09:10;;;;;;;18.23;10.32;;;;;;;;;;4998849;28;20334;-80
2022/09/13 02:11:38;;;;;;;15.82;9.27;;;;;;;;;;5000173;28;20454;-81
2022/09/13 02:14:10;;;;;;;17.13;10.93;;;;;;;;;;5002044;28;20046;-81
2022/09/13 02:16:38;;;;;;;22.80;12.35;;;;;;;;;;5008637;28;20038;-81
2022/09/13 02:19:09;;;;;;;20.23;11.88;;;;;;;;;;4995216;28;20042;-81
2022/09/13 02:21:41;;;;;;;21.60;11.32;;;;;;;;;;4997583;28;20070;-80
2022/09/13 02:24:11;;;;;;;15.35;9.55;;;;;;;;;;4997045;28;20054;-80
2022/09/13 02:26:39;;;;;;;14.20;9.68;;;;;;;;;;4995493;28;20053;-80
2022/09/13 02:29:08;;;;;;;13.77;10.10;;;;;;;;;;4995174;28;20053;-80
2022/09/13 02:31:38;;;;;;;15.20;9.52;;;;;;;;;;4996121;28;20487;-81
2022/09/13 02:34:09;;;;;;;20.48;9.45;;;;;;;;;;4997044;28;20042;-82
2022/09/13 02:36:40;;;;;;;15.50;9.65;;;;;;;;;;4995753;28;20055;-79
2022/09/13 02:39:12;;;;;;;15.63;10.00;;;;;;;;;;4994865;28;20459;-80
2022/09/13 02:41:44;;;;;;;16.70;10.00;;;;;;;;;;4977952;28;20113;-81
2022/09/13 02:44:24;;;;;;;14.55;10.18;;;;;;;;;;4995435;28;20069;-80
2022/09/13 02:47:10;;;;;;;13.98;9.30;;;;;;;;;;4996561;28;20058;-80
2022/09/13 02:49:37;;;;;;;13.60;9.25;;;;;;;;;;4995513;28;20105;-81
2022/09/13 02:52:08;;;;;;;12.75;8.32;;;;;;;;;;4996449;28;20141;-81
2022/09/13 02:54:43;;;;;;;12.93;8.40;;;;;;;;;;4996470;28;20047;-81
2022/09/13 02:57:09;;;;;;;;;;;;;;;;;;4978976;28;20053;-81
2022/09/13 02:59:37;;;;;;;13.57;8.23;;;;;;;;;;4979432;28;19948;-81
2022/09/13 03:02:05;;;;;;;12.93;8.65;;;;;;;;;;4981192;28;20047;-82
2022/09/13 03:04:33;;;;;;;11.18;7.72;;;;;;;;;;4992719;28;20057;-80
2022/09/13 03:07:00;;;;;;;13.73;7.20;;;;;;;;;;5004782;28;20058;-81
2022/09/13 03:09:26;;;;;;;14.60;6.80;;;;;;;;;;5011908;28;20246;-81
2022/09/13 03:11:59;;;;;;;8.32;5.97;;;;;;;;;;5000181;28;20058;-80
2022/09/13 03:14:31;;;;;;;14.07;6.30;;;;;;;;;;5002449;28;20529;-81
2022/09/13 03:17:03;;;;;;;11.05;6.00;;;;;;;;;;5008012;28;20043;-80
2022/09/13 03:19:45;;;;;;;10.68;6.05;;;;;;;;;;4996279;28;20042;-80
2022/09/13 03:22:30;;;;;;;9.70;6.30;;;;;;;;;;4994036;28;20057;-81
2022/09/13 03:25:11;;;;;;;10.10;5.93;;;;;;;;;;4995638;28;20062;-81
2022/09/13 03:27:45;;;;;;;8.10;5.40;;;;;;;;;;4978143;28;20050;-80
2022/09/13 03:30:13;;;;;;;8.93;5.37;;;;;;;;;;4999852;28;20050;-79
2022/09/13 03:32:48;;;;;;;9.57;6.18;;;;;;;;;;4999777;28;20054;-80
2022/09/13 03:35:20;;;;;;;11.52;5.75;;;;;;;;;;5002446;28;20061;-82
2022/09/13 03:37:55;;;;;;;9.02;5.78;;;;;;;;;;5002751;28;20053;-80
2022/09/13 03:40:25;;;;;;;8.18;5.28;;;;;;;;;;5002130;28;20058;-81
2022/09/13 03:43:00;;;;;;;8.57;5.65;;;;;;;;;;5001055;28;20052;-80
2022/09/13 03:45:28;;;;;;;10.52;5.90;;;;;;;;;;5000689;28;20054;-80
2022/09/13 03:47:56;;;;;;;10.38;6.45;;;;;;;;;;4997839;28;20105;-80
2022/09/13 03:50:23;;;;;;;11.27;6.38;;;;;;;;;;4996754;28;20054;-79
2022/09/13 03:52:52;;;;;;;11.90;6.35;;;;;;;;;;4997223;28;20046;-80
2022/09/13 03:55:20;;;;;;;8.85;6.38;;;;;;;;;;4996866;28;20150;-80
2022/09/13 03:57:46;;;;;;;9.55;6.30;;;;;;;;;;4996555;28;20054;-81
2022/09/13 04:00:13;;;;;;;8.45;6.35;;;;;;;;;;4996545;28;20050;-81
2022/09/13 04:02:40;;;;;;;9.80;6.80;;;;;;;;;;4995587;28;20052;-81
2022/09/13 04:05:06;;;;;;;9.25;6.55;;;;;;;;;;5011752;28;20061;-82
2022/09/13 04:07:33;;;;;;;9.02;6.63;;;;;;;;;;5017941;28;20118;-82
2022/09/13 04:10:00;;;;;;;9.40;6.53;;;;;;;;;;5014512;28;20057;-80
2022/09/13 04:12:30;;;;;;;9.90;6.43;;;;;;;;;;5013146;28;20064;-79
2022/09/13 04:14:56;;;;;;;9.73;6.00;;;;;;;;;;5013878;28;20053;-82
2022/09/13 04:17:23;;;;;;;10.18;6.10;;;;;;;;;;5015279;28;20049;-82
2022/09/13 04:19:49;;;;;;;8.77;5.95;;;;;;;;;;5015989;28;20089;-81
2022/09/13 04:22:16;;;;;;;11.98;6.20;;;;;;;;;;5017246;28;20391;-83
2022/09/13 04:24:43;;;;;;;9.70;6.07;;;;;;;;;;5016838;28;20057;-81
2022/09/13 04:27:09;;;;;;;7.18;5.35;;;;;;;;;;5015008;28;20276;-81
2022/09/13 04:29:35;;;;;;;7.90;5.70;;;;;;;;;;5016128;28;20060;-81
2022/09/13 04:32:02;;;;;;;8.65;5.68;;;;;;;;;;5014964;28;20056;-81
2022/09/13 04:34:29;;;;;;;14.15;5.07;;;;;;;;;;5014582;28;20045;-82
2022/09/13 04:36:55;;;;;;;9.63;5.20;;;;;;;;;;5017877;28;20050;-82
2022/09/13 04:39:22;;;;;;;8.70;5.38;;;;;;;;;;5015078;28;20066;-80
2022/09/13 04:41:50;;;;;;;8.40;5.20;;;;;;;;;;4997466;28;20054;-83
2022/09/13 04:44:17;;;;;;;6.22;5.05;;;;;;;;;;5016066;28;20392;-83
2022/09/13 04:46:46;;;;;;;8.50;5.35;;;;;;;;;;5016433;28;20049;-82
2022/09/13 04:49:13;;;;;;;8.30;5.50;;;;;;;;;;5016234;28;20060;-82
2022/09/13 04:51:40;;;;;;;8.75;4.97;;;;;;;;;;4992490;28;20070;-83
2022/09/13 04:54:07;;;;;;;11.50;5.75;;;;;;;;;;4992298;28;20487;-82
2022/09/13 04:56:40;;;;;;;10.77;5.38;;;;;;;;;;4994870;28;20143;-83
2022/09/13 04:59:06;;;;;;;8.07;5.18;;;;;;;;;;4991535;28;20053;-82
2022/09/13 05:01:33;;;;;;;7.47;5.35;;;;;;;;;;4994518;28;20589;-81
2022/09/13 05:04:00;;;;;;;10.25;5.55;;;;;;;;;;4995668;28;20054;-83
2022/09/13 05:06:27;;;;;;;10.75;4.93;;;;;;;;;;4997016;28;20060;-82
2022/09/13 05:08:54;;;;;;;7.72;5.18;;;;;;;;;;4999043;28;20046;-82
2022/09/13 05:11:21;;;;;;;7.03;4.57;;;;;;;;;;4997804;28;20233;-80
2022/09/13 05:13:53;;;;;;;8.82;5.38;;;;;;;;;;4998905;28;20495;-82
2022/09/13 05:16:20;;;;;;;7.00;5.03;;;;;;;;;;5000109;28;20054;-81
2022/09/13 05:18:47;;;;;;;7.25;5.07;;;;;;;;;;5000210;28;20509;-82
2022/09/13 05:21:13;;;;;;;8.07;5.53;;;;;;;;;;5004137;28;20053;-81
2022/09/13 05:23:40;;;;;;;9.60;5.57;;;;;;;;;;5011039;28;20050;-82
2022/09/13 05:26:06;;;;;;;7.53;4.75;;;;;;;;;;5002719;28;20070;-82
2022/09/13 05:28:34;;;;;;;7.72;4.43;;;;;;;;;;4978426;28;20058;-81
2022/09/13 05:31:02;;;;;;;11.93;4.70;;;;;;;;;;4992653;28;20046;-81
2022/09/13 05:33:29;;;;;;;7.28;4.85;;;;;;;;;;4990065;28;20050;-82
2022/09/13 05:35:56;;;;;;;6.05;4.63;;;;;;;;;;4993812;28;20057;-81
2022/09/13 05:38:22;;;;;;;6.55;4.95;;;;;;;;;;4989391;28;20050;-81
2022/09/13 05:40:56;;;;;;;6.97;5.00;;;;;;;;;;4991763;28;20046;-81
2022/09/13 05:43:23;;;;;;;9.50;5.30;;;;;;;;;;4991290;28;20056;-81
2022/09/13 05:45:58;;;;;;;6.43;4.60;;;;;;;;;;4996096;28;20129;-81
2022/09/13 05:48:25;;;;;;;10.80;5.07;;;;;;;;;;4995999;28;20129;-82
2022/09/13 05:50:51;;;;;;;7.32;4.70;;;;;;;;;;4997009;28;20061;-82
2022/09/13 05:53:24;;;;;;;7.50;4.65;;;;;;;;;;4995609;28;20054;-83
2022/09/13 05:55:51;;;;;;;8.75;4.65;;;;;;;;;;4997294;28;20497;-80
2022/09/13 05:58:17;;;;;;;6.88;4.25;;;;;;;;;;4993111;28;20050;-81
2022/09/13 06:00:43;;;;;;;8.90;4.13;;;;;;;;;;4994042;28;20475;-81
2022/09/13 06:03:10;;;;;;;6.88;4.13;;;;;;;;;;4995508;28;20054;-81
2022/09/13 06:05:36;;;;;;;6.00;3.95;;;;;;;;;;5000037;28;20052;-81
2022/09/13 06:08:03;;;;;;;5.57;3.90;;;;;;;;;;5002014;28;20418;-81
2022/09/13 06:10:29;;;;;;;8.07;4.15;;;;;;;;;;4999868;28;20137;-81
2022/09/13 06:12:55;;;;;;;5.05;3.72;;;;;;;;;;5000191;28;20046;-82
2022/09/13 06:15:22;;;;;;;7.45;4.28;;;;;;;;;;5002053;28;20055;-82
2022/09/13 06:17:48;;;;;;;5.38;3.90;;;;;;;;;;4994778;28;20061;-83
2022/09/13 06:20:14;;;;;;;11.82;4.07;;;;;;;;;;4977615;28;20502;-81
2022/09/13 06:22:41;;;;;;;7.45;4.20;;;;;;;;;;4999261;28;20043;-81
2022/09/13 06:25:08;;;;;;;9.75;3.95;;;;;;;;;;4981947;28;20050;-82
2022/09/13 06:27:34;;;;;;;10.13;4.60;;;;;;;;;;4995718;28;20154;-83
2022/09/13 06:30:01;;;;;;;8.38;3.92;;;;;;;;;;4996020;28;20050;-82
2022/09/13 06:32:27;;;;;;;20.75;4.82;;;;;;;;;;4980336;28;20055;-82
2022/09/13 06:34:53;;;;;;;6.75;4.10;;;;;;;;;;5002222;28;20109;-82
2022/09/13 06:37:20;;;;;;;7.43;4.05;;;;;;;;;;5001606;28;20366;-83
2022/09/13 06:39:47;;;;;;;5.95;3.90;;;;;;;;;;5000431;28;20057;-80
2022/09/13 06:42:13;;;;;;;5.03;3.67;;;;;;;;;;5002433;28;20050;-82
2022/09/13 06:44:40;;;;;;;10.30;3.80;;;;;;;;;;5010115;28;20064;-82
2022/09/13 06:47:08;;;;;;;7.82;3.97;;;;;;;;;;5011372;28;20039;-84
2022/09/13 06:49:35;;;;;;;6.93;3.75;;;;;;;;;;5005702;28;20057;-82
2022/09/13 06:52:01;;;;;;;6.32;3.78;;;;;;;;;;5000585;28;20046;-83
2022/09/13 06:54:27;;;;;;;5.35;3.67;;;;;;;;;;4997620;28;20051;-82
2022/09/13 06:56:54;;;;;;;5.40;3.75;;;;;;;;;;4998604;28;20042;-82
2022/09/13 06:59:20;;;;;;;5.95;3.55;;;;;;;;;;4999448;28;20046;-82
2022/09/13 07:01:46;;;;;;;6.72;3.50;;;;;;;;;;5000101;28;20526;-82
2022/09/13 07:04:14;;;;;;;6.65;3.67;;;;;;;;;;5011679;28;20140;-81
2022/09/13 07:06:42;;;;;;;6.88;3.72;;;;;;;;;;5021093;28;20400;-81
2022/09/13 07:09:17;;;;;;;6.10;3.70;;;;;;;;;;5020241;28;20065;-80
2022/09/13 07:11:44;;;;;;;5.65;3.40;;;;;;;;;;5021015;28;20053;-82
2022/09/13 07:14:13;;;;;;;4.47;3.40;;;;;;;;;;5021648;28;20071;-82
2022/09/13 07:16:39;;;;;;;6.38;3.40;;;;;;;;;;5022665;28;20046;-80
2022/09/13 07:19:07;;;;;;;5.60;3.53;;;;;;;;;;5020952;28;20132;-81
2022/09/13 07:21:34;;;;;;;6.75;3.55;;;;;;;;;;5005481;28;20084;-81
2022/09/13 07:24:00;;;;;;;7.95;3.65;;;;;;;;;;5021916;28;20042;-82
2022/09/13 07:26:27;;;;;;;7.90;3.80;;;;;;;;;;5020815;28;20057;-81
2022/09/13 07:28:55;;;;;;;5.97;3.45;;;;;;;;;;5021451;28;20076;-82
2022/09/13 07:31:24;;;;;;;7.72;3.50;;;;;;;;;;5023915;28;20061;-82
2022/09/13 07:33:58;;;;;;;7.25;3.20;;;;;;;;;;5023553;28;20045;-82
2022/09/13 07:36:25;;;;;;;5.20;3.30;;;;;;;;;;5028688;28;20072;-83
2022/09/13 07:38:52;;;;;;;8.52;3.40;;;;;;;;;;5029515;28;20048;-82
2022/09/13 07:41:19;;;;;;;6.20;3.92;;;;;;;;;;5020775;28;20050;-82
2022/09/13 07:43:46;;;;;;;7.15;3.00;;;;;;;;;;5001516;28;20049;-82
2022/09/13 07:46:15;;;;;;;3.80;3.10;;;;;;;;;;5020667;28;20476;-82
2022/09/13 07:48:42;;;;;;;11.70;3.38;;;;;;;;;;5018955;28;20061;-82
2022/09/13 07:51:08;;;;;;;4.88;2.90;;;;;;;;;;5020480;28;20510;-82
2022/09/13 07:53:35;;;;;;;6.63;3.25;;;;;;;;;;5018374;28;20585;-81
2022/09/13 07:56:10;;;;;;;5.97;3.10;;;;;;;;;;5000539;28;20045;-80
2022/09/13 07:58:37;;;;;;;5.80;3.30;;;;;;;;;;5017072;28;20358;-82
2022/09/13 08:01:03;;;;;;;7.65;3.33;;;;;;;;;;5017849;28;20167;-80
2022/09/13 08:03:30;;;;;;;4.90;3.88;;;;;;;;;;5013113;28;20050;-83
2022/09/13 08:05:57;;;;;;;6.85;3.40;;;;;;;;;;4980520;28;20506;-81
2022/09/13 08:08:23;;;;;;;9.40;4.00;;;;;;;;;;4996561;28;20069;-80
2022/09/13 08:10:50;;;;;;;9.07;4.47;;;;;;;;;;4998697;28;20183;-80
2022/09/13 08:13:16;;;;;;;7.32;5.00;;;;;;;;;;4995823;28;20135;-82
2022/09/13 08:15:43;;;;;;;11.60;4.70;;;;;;;;;;4997263;28;20059;-81
2022/09/13 08:18:09;;;;;;;8.52;4.18;;;;;;;;;;4997021;28;20120;-81
2022/09/13 08:20:37;;;;;;;7.95;4.57;;;;;;;;;;4979949;28;20447;-80
2022/09/13 08:23:04;;;;;;;6.50;4.40;;;;;;;;;;4998242;28;20062;-82
2022/09/13 08:25:33;;;;;;;7.78;4.80;;;;;;;;;;4980720;28;20099;-82
2022/09/13 08:28:00;;;;;;;6.55;4.50;;;;;;;;;;4997548;28;20050;-82
2022/09/13 08:30:32;;;;;;;12.68;4.90;;;;;;;;;;5001304;28;20050;-82
2022/09/13 08:33:00;;;;;;;6.43;4.53;;;;;;;;;;4999903;28;20172;-81
2022/09/13 08:35:26;;;;;;;8.25;4.68;;;;;;;;;;4998974;28;20053;-81
2022/09/13 08:37:52;;;;;;;5.70;4.20;;;;;;;;;;4997522;28;20073;-81
2022/09/13 08:40:19;;;;;;;6.13;4.60;;;;;;;;;;4995425;28;20057;-82
2022/09/13 08:42:52;;;;;;;10.40;4.60;;;;;;;;;;4996004;28;20430;-82
2022/09/13 08:45:18;;;;;;;8.40;4.75;;;;;;;;;;4991410;28;20050;-83
2022/09/13 08:47:50;;;;;;;7.57;4.60;;;;;;;;;;5015543;28;20053;-83
2022/09/13 08:50:37;;;;;;;11.38;4.28;;;;;;;;;;5015485;28;20050;-82
2022/09/13 08:53:21;;;;;;;10.57;4.45;;;;;;;;;;4997989;28;20053;-83
2022/09/13 08:55:47;;;;;;;8.95;4.47;;;;;;;;;;4998637;28;20079;-82
2022/09/13 08:58:14;;;;;;;6.60;4.25;;;;;;;;;;4996946;28;20493;-84
2022/09/13 09:00:43;;;;;;;7.20;3.63;;;;;;;;;;5017027;28;20061;-83
2022/09/13 09:03:15;;;;;;;6.15;3.55;;;;;;;;;;5016542;28;20082;-83
2022/09/13 09:05:46;;;;;;;4.90;3.40;;;;;;;;;;4963777;28;20050;-83
2022/09/13 09:08:18;;;;;;;6.15;3.40;;;;;;;;;;4996125;28;20056;-82
2022/09/13 09:10:46;;;;;;;5.95;3.47;;;;;;;;;;4996577;28;20058;-82
2022/09/13 09:13:13;;;;;;;5.72;2.83;;;;;;;;;;4995434;28;20054;-82
2022/09/13 09:15:42;;;;;;;5.00;2.85;;;;;;;;;;4996480;28;20503;-82
2022/09/13 09:18:13;;;;;;;4.03;2.92;;;;;;;;;;4996166;28;20526;-82
2022/09/13 09:20:45;;;;;;;6.00;2.70;;;;;;;;;;4979475;28;20046;-82
2022/09/13 09:23:13;;;;;;;3.58;2.47;;;;;;;;;;4997099;28;20057;-83
2022/09/13 09:25:47;;;;;;;4.55;2.38;;;;;;;;;;5001765;28;20057;-82
2022/09/13 09:28:14;;;;;;;4.13;2.45;;;;;;;;;;4993963;28;20062;-82
2022/09/13 09:30:53;;;;;;;2.88;2.38;;;;;;;;;;4996845;28;20491;-82
2022/09/13 09:33:27;;;;;;;3.67;2.50;;;;;;;;;;4995537;28;20050;-82
2022/09/13 09:35:53;;;;;;;3.22;2.20;;;;;;;;;;4996397;28;20082;-82
2022/09/13 09:38:31;;;;;;;4.07;2.33;;;;;;;;;;4996333;28;20434;-83
2022/09/13 09:41:00;;;;;;;3.22;2.40;;;;;;;;;;4997587;28;20050;-83
2022/09/13 09:43:32;;;;;;;3.67;2.35;;;;;;;;;;4996432;28;20060;-82
2022/09/13 09:45:59;;;;;;;3.40;2.20;;;;;;;;;;4998201;28;20054;-83
2022/09/13 09:48:28;;;;;;;5.55;2.95;;;;;;;;;;5004441;28;20122;-83
2022/09/13 09:50:57;;;;;;;10.52;2.75;;;;;;;;;;4992703;28;20039;-80
2022/09/13 09:53:28;;;;;;;3.67;2.55;;;;;;;;;;4996653;28;20463;-81
2022/09/13 09:56:18;;;;;;;2.90;2.50;;;;;;;;;;4996799;28;20065;-83
2022/09/13 09:58:45;;;;;;;3.22;2.45;;;;;;;;;;4995888;28;20046;-82
2022/09/13 10:01:17;;;;;;;3.15;2.35;;;;;;;;;;4979155;28;20067;-83
2022/09/13 10:03:49;;;;;;;2.42;2.10;;;;;;;;;;4999189;28;20081;-82
2022/09/13 10:06:19;;;;;;;11.10;2.50;;;;;;;;;;5015555;28;20149;-83
2022/09/13 10:09:03;;;;;;;2.53;1.80;;;;;;;;;;5015572;28;20070;-83
2022/09/13 10:11:49;;;;;;;2.50;1.60;;;;;;;;;;5016536;28;20076;-83
2022/09/13 10:14:35;;;;;;;7.45;2.40;;;;;;;;;;5017273;28;20054;-82
2022/09/13 10:17:24;;;;;;;2.45;1.98;;;;;;;;;;5032794;28;20109;-83
2022/09/13 10:19:58;;;;;;;16.90;2.42;;;;;;;;;;5021694;28;20102;-83
2022/09/13 10:22:25;;;;;;;4.32;2.40;;;;;;;;;;5017402;28;20050;-83
2022/09/13 10:24:52;;;;;;;5.07;2.13;;;;;;;;;;5016353;28;20133;-80
2022/09/13 10:27:22;;;;;;;3.17;1.95;;;;;;;;;;5016279;28;20052;-82
2022/09/13 10:29:50;;;;;;;3.38;1.88;;;;;;;;;;5015231;28;20050;-81
2022/09/13 10:32:18;;;;;;;2.97;2.40;;;;;;;;;;4997787;28;20064;-82
2022/09/13 10:34:45;;;;;;;2.97;1.90;;;;;;;;;;5016119;28;20105;-82
2022/09/13 10:37:16;;;;;;;4.22;2.17;;;;;;;;;;5016573;28;20076;-83
2022/09/13 10:39:48;;;;;;;7.03;2.67;;;;;;;;;;5019532;28;20610;-81
2022/09/13 10:42:19;;;;;;;4.00;2.28;;;;;;;;;;5019135;28;20081;-81
2022/09/13 10:44:51;;;;;;;2.40;2.15;;;;;;;;;;5020146;28;20088;-82
2022/09/13 10:47:20;;;;;;;4.90;2.67;;;;;;;;;;5004391;28;20056;-83
2022/09/13 10:49:51;;;;;;;4.57;2.60;;;;;;;;;;5021981;28;20082;-82
2022/09/13 10:52:26;;;;;;;3.45;2.42;;;;;;;;;;5003579;28;20104;-83
2022/09/13 10:54:53;;;;;;;4.78;2.63;;;;;;;;;;5001668;28;20068;-82
2022/09/13 10:57:36;;;;;;;5.72;2.08;;;;;;;;;;5017860;28;20133;-82
2022/09/13 11:00:09;;;;;;;5.32;2.42;;;;;;;;;;5019844;28;20177;-82
2022/09/13 11:02:44;;;;;;;4.28;2.38;;;;;;;;;;5019574;28;20054;-82
2022/09/13 11:05:25;;;;;;;4.53;2.30;;;;;;;;;;5003633;28;20050;-83
2022/09/13 11:07:51;;;;;;;3.05;2.13;;;;;;;;;;5000661;28;20050;-83
2022/09/13 11:10:37;;;;;;;2.80;1.90;;;;;;;;;;5000790;28;20054;-83
2022/09/13 11:13:06;;;;;;;6.53;1.90;;;;;;;;;;4998387;28;20061;-84
2022/09/13 11:15:42;;;;;;;2.20;1.52;;;;;;;;;;5001905;28;20077;-82
2022/09/13 11:18:15;;;;;;;2.85;1.63;;;;;;;;;;5000458;28;20065;-83
2022/09/13 11:20:42;;;;;;;3.63;1.90;;;;;;;;;;4998146;28;20106;-81
2022/09/13 11:23:25;;;;;;;5.07;1.65;;;;;;;;;;5001412;28;20057;-83
2022/09/13 11:25:55;;;;;;;4.90;1.55;;;;;;;;;;5001192;28;20054;-83
2022/09/13 11:28:21;;;;;;;2.03;1.55;;;;;;;;;;5000260;28;20068;-83
2022/09/13 11:30:50;;;;;;;1.67;1.40;;;;;;;;;;5002157;28;20133;-82
2022/09/13 11:33:17;;;;;;;5.65;1.50;;;;;;;;;;4998616;28;20082;-81
2022/09/13 11:35:43;;;;;;;2.65;1.08;;;;;;;;;;5001447;28;20133;-83
2022/09/13 11:38:26;;;;;;;5.35;1.33;;;;;;;;;;4999853;28;20050;-83
2022/09/13 11:41:04;;;;;;;3.42;1.50;;;;;;;;;;4999636;28;20042;-83
2022/09/13 11:43:42;;;;;;;6.85;1.60;;;;;;;;;;4982416;28;20047;-82
2022/09/13 11:46:09;;;;;;;2.55;1.27;;;;;;;;;;4999374;28;20051;-81
2022/09/13 11:48:48;;;;;;;2.47;1.40;;;;;;;;;;4997519;28;20054;-82
2022/09/13 11:51:37;;;;;;;3.38;1.27;;;;;;;;;;5001700;28;20070;-83
2022/09/13 11:54:16;;;;;;;2.42;1.40;;;;;;;;;;5003243;28;20080;-83
2022/09/13 11:56:48;;;;;;;2.45;1.33;;;;;;;;;;5004604;28;20081;-82
2022/09/13 11:59:22;;;;;;;4.07;1.40;;;;;;;;;;5007251;28;20050;-80
2022/09/13 12:01:50;;;;;;;2.45;1.30;;;;;;;;;;5012345;28;20043;-80
2022/09/13 12:04:20;;;;;;;4.68;1.75;;;;;;;;;;5013460;28;20050;-80
2022/09/13 12:06:56;;;;;;;3.55;1.60;;;;;;;;;;5006643;28;20057;-82
2022/09/13 12:09:24;;;;;;;5.00;1.85;;;;;;;;;;5008785;28;20058;-82
2022/09/13 12:12:11;;;;;;;7.53;1.67;;;;;;;;;;5001572;28;20054;-81
2022/09/13 12:14:42;;;;;;;6.47;1.70;;;;;;;;;;4998520;28;20140;-82
2022/09/13 12:17:29;;;;;;;3.67;1.75;;;;;;;;;;4998258;28;20051;-81
2022/09/13 12:19:57;;;;;;;5.18;1.70;;;;;;;;;;4974271;28;20407;-80
2022/09/13 12:22:29;;;;;;;7.05;1.90;;;;;;;;;;4998075;28;20050;-79
2022/09/13 12:24:57;;;;;;;3.47;1.90;;;;;;;;;;4999566;28;20064;-80
2022/09/13 12:27:30;;;;;;;4.47;1.85;;;;;;;;;;4980257;28;20255;-82
2022/09/13 12:30:29;;;;;;;2.63;1.70;;;;;;;;;;4998550;28;20058;-80
2022/09/13 12:32:55;;;;;;;2.45;1.70;;;;;;;;;;4993458;28;20553;-80
2022/09/13 12:35:24;;;;;;;3.50;2.00;;;;;;;;;;4999246;28;20145;-79
2022/09/13 12:38:11;;;;;;;2.55;1.70;;;;;;;;;;4999591;28;20270;-81
2022/09/13 12:40:48;;;;;;;2.33;1.85;;;;;;;;;;4998353;28;20051;-81
2022/09/13 12:43:14;;;;;;;2.70;1.52;;;;;;;;;;4995107;28;20078;-80
2022/09/13 12:45:41;;;;;;;8.25;2.17;;;;;;;;;;4993215;28;20080;-80
2022/09/13 12:48:10;;;;;;;3.13;1.92;;;;;;;;;;4991968;28;20109;-81
2022/09/13 12:50:54;;;;;;;2.22;1.90;;;;;;;;;;4975213;28;20525;-81
2022/09/13 12:53:24;;;;;;;5.82;2.08;;;;;;;;;;4992071;28;20081;-83
2022/09/13 12:55:53;;;;;;;2.03;1.63;;;;;;;;;;4992873;28;20374;-80
2022/09/13 12:58:20;;;;;;;2.03;1.70;;;;;;;;;;4991599;28;20141;-80
2022/09/13 13:01:10;;;;;;;6.18;1.50;;;;;;;;;;4994093;28;20042;-79
2022/09/13 13:03:43;;;;;;;3.10;1.48;;;;;;;;;;4958530;28;20058;-82
2022/09/13 13:06:20;;;;;;;1.80;1.55;;;;;;;;;;5015912;28;20052;-80
2022/09/13 13:08:51;;;;;;;2.88;1.73;;;;;;;;;;5013001;28;20060;-79
2022/09/13 13:11:21;;;;;;;2.15;1.50;;;;;;;;;;5012828;28;20046;-81
2022/09/13 13:14:08;;;;;;;5.85;1.60;;;;;;;;;;4994777;28;20053;-81
2022/09/13 13:16:36;;;;;;;6.95;1.80;;;;;;;;;;4988675;28;20133;-79
2022/09/13 13:19:22;;;;;;;3.67;1.70;;;;;;;;;;4991072;28;20435;-79
2022/09/13 13:21:48;;;;;;;4.53;1.48;;;;;;;;;;4990233;28;20608;-81
2022/09/13 13:24:14;;;;;;;2.03;1.50;;;;;;;;;;4991465;28;20057;-81
2022/09/13 13:26:41;;;;;;;3.58;1.48;;;;;;;;;;4990705;28;20503;-81
2022/09/13 13:29:10;;;;;;;5.03;1.90;;;;;;;;;;5000651;28;20057;-83
2022/09/13 13:31:38;;;;;;;1.75;1.33;;;;;;;;;;4998839;28;20069;-81
2022/09/13 13:34:13;;;;;;;2.38;1.30;;;;;;;;;;4990574;28;20081;-82
2022/09/13 13:36:42;;;;;;;2.22;1.05;;;;;;;;;;4997702;28;20046;-82
2022/09/13 13:39:24;;;;;;;1.73;0.93;;;;;;;;;;4998688;28;20434;-82
2022/09/13 13:41:53;;;;;;;4.78;1.25;;;;;;;;;;4996555;28;20110;-82
2022/09/13 13:44:20;;;;;;;1.40;1.02;;;;;;;;;;5005342;28;20072;-82
2022/09/13 13:46:47;;;;;;;2.92;1.15;;;;;;;;;;5014895;28;20137;-82
2022/09/13 13:49:37;;;;;;;1.25;1.08;;;;;;;;;;5011728;28;20046;-79
2022/09/13 13:52:10;;;;;;;1.42;0.98;;;;;;;;;;4956008;28;20054;-80
2022/09/13 13:54:57;;;;;;;2.08;1.00;;;;;;;;;;4976871;28;20129;-81
2022/09/13 13:57:32;;;;;;;2.10;1.00;;;;;;;;;;4995829;28;20068;-82
2022/09/13 13:59:59;;;;;;;;;;;;;;;;;;4996278;28;20042;-81
2022/09/13 14:02:30;;;;;;;2.13;1.20;;;;;;;;;;4997754;28;19921;-82
2022/09/13 14:05:00;;;;;;;3.05;1.40;;;;;;;;;;4998754;28;20042;-83
2022/09/13 14:07:30;;;;;;;1.30;1.10;;;;;;;;;;4989867;28;20040;-81
2022/09/13 14:10:01;;;;;;;2.20;1.20;;;;;;;;;;5009451;28;20050;-82
2022/09/13 14:12:27;;;;;;;3.97;1.40;;;;;;;;;;4999431;28;20050;-80
2022/09/13 14:14:56;;;;;;;1.60;1.25;;;;;;;;;;4998742;28;20068;-81
2022/09/13 14:17:38;;;;;;;1.55;1.13;;;;;;;;;;4992129;28;20527;-78
2022/09/13 14:20:11;;;;;;;5.13;1.23;;;;;;;;;;4993017;28;20502;-80
2022/09/13 14:22:37;;;;;;;3.22;1.25;;;;;;;;;;4992818;28;20054;-80
2022/09/13 14:25:19;;;;;;;4.30;1.40;;;;;;;;;;4992682;28;20046;-79
2022/09/13 14:27:46;;;;;;;3.60;1.27;;;;;;;;;;4993169;28;20061;-81
2022/09/13 14:30:20;;;;;;;2.22;1.30;;;;;;;;;;4999276;28;20050;-82
2022/09/13 14:32:51;;;;;;;2.47;1.30;;;;;;;;;;4981564;28;20125;-81
2022/09/13 14:35:35;;;;;;;3.53;1.40;;;;;;;;;;4995399;28;20150;-80
2022/09/13 14:38:20;;;;;;;2.95;1.20;;;;;;;;;;4993758;28;20050;-82
2022/09/13 14:40:51;;;;;;;3.20;1.30;;;;;;;;;;4995884;28;20047;-80
2022/09/13 14:43:19;;;;;;;4.60;1.50;;;;;;;;;;4994581;28;20046;-79
2022/09/13 14:45:48;;;;;;;2.55;1.40;;;;;;;;;;4996947;28;20065;-80
2022/09/13 14:48:20;;;;;;;2.60;1.60;;;;;;;;;;4997534;28;20190;-82
2022/09/13 14:50:51;;;;;;;2.05;1.40;;;;;;;;;;4995360;28;20054;-80
2022/09/13 14:53:20;;;;;;;3.92;2.10;;;;;;;;;;4995714;28;20051;-81
2022/09/13 14:55:58;;;;;;;2.67;1.50;;;;;;;;;;4995378;28;20050;-80
2022/09/13 14:58:27;;;;;;;3.03;1.65;;;;;;;;;;4994298;28;20061;-80